createdAt,value
2018-03-31T00:00:17.521Z,0.00
2018-03-31T00:01:17.682Z,0.00
2018-03-31T00:02:17.846Z,0.00
2018-03-31T00:03:18.020Z,0.00
2018-03-31T00:04:18.164Z,0.00
2018-03-31T00:05:18.334Z,0.00
2018-03-31T00:06:20.555Z,0.00
2018-03-31T00:07:18.659Z,0.00
2018-03-31T00:08:18.811Z,0.00
2018-03-31T00:09:18.997Z,0.00
2018-03-31T00:10:19.166Z,0.00
2018-03-31T00:11:19.345Z,0.00
2018-03-31T00:12:19.505Z,0.00
2018-03-31T00:13:19.719Z,0.00
2018-03-31T00:14:19.831Z,0.00
2018-03-31T00:15:20.029Z,0.00
2018-03-31T00:16:20.189Z,0.00
2018-03-31T00:17:20.339Z,0.00
2018-03-31T00:18:20.501Z,0.00
2018-03-31T00:19:20.675Z,0.00
2018-03-31T00:20:20.842Z,0.00
2018-03-31T00:21:21.004Z,0.00
2018-03-31T00:22:21.193Z,0.00
2018-03-31T00:23:21.341Z,0.00
2018-03-31T00:24:21.519Z,0.00
2018-03-31T00:25:21.685Z,0.00
2018-03-31T00:26:21.850Z,0.00
2018-03-31T00:27:22.015Z,0.00
2018-03-31T00:28:22.206Z,0.00
2018-03-31T00:29:22.335Z,0.00
2018-03-31T00:30:22.493Z,0.00
2018-03-31T00:31:22.662Z,0.00
2018-03-31T00:32:22.820Z,0.00
2018-03-31T00:33:22.985Z,0.00
2018-03-31T00:34:23.147Z,0.00
2018-03-31T00:35:23.327Z,0.00
2018-03-31T00:36:23.485Z,0.00
2018-03-31T00:37:23.655Z,0.00
2018-03-31T00:38:23.816Z,0.00
2018-03-31T00:39:23.973Z,0.00
2018-03-31T00:40:24.142Z,0.00
2018-03-31T00:41:24.293Z,0.00
2018-03-31T00:42:24.459Z,0.00
2018-03-31T00:43:24.631Z,0.00
2018-03-31T00:44:24.800Z,0.00
2018-03-31T00:45:24.993Z,0.00
2018-03-31T00:46:25.150Z,0.00
2018-03-31T00:47:25.314Z,0.00
2018-03-31T00:48:25.470Z,0.00
2018-03-31T00:49:25.643Z,0.00
2018-03-31T00:50:25.809Z,0.00
2018-03-31T00:51:25.979Z,0.00
2018-03-31T00:52:26.167Z,0.00
2018-03-31T00:53:26.319Z,0.00
2018-03-31T00:54:26.468Z,0.00
2018-03-31T00:55:26.657Z,0.00
2018-03-31T00:56:26.793Z,0.00
2018-03-31T00:57:26.962Z,0.00
2018-03-31T00:58:27.160Z,0.00
2018-03-31T00:59:27.303Z,0.00
2018-03-31T01:00:27.513Z,0.00
2018-03-31T01:01:27.879Z,0.00
2018-03-31T01:02:27.786Z,0.00
2018-03-31T01:03:27.974Z,0.00
2018-03-31T01:05:28.326Z,0.00
2018-03-31T01:06:28.491Z,0.00
2018-03-31T01:07:28.688Z,0.00
2018-03-31T01:08:28.814Z,0.00
2018-03-31T01:09:29.009Z,0.00
2018-03-31T01:10:29.156Z,0.00
2018-03-31T01:11:29.335Z,0.00
2018-03-31T01:12:29.479Z,0.00
2018-03-31T01:13:29.637Z,0.00
2018-03-31T01:14:30.175Z,0.00
2018-03-31T01:15:30.010Z,0.00
2018-03-31T01:16:30.189Z,0.00
2018-03-31T01:18:30.507Z,0.00
2018-03-31T01:19:30.697Z,0.00
2018-03-31T01:20:30.903Z,0.00
2018-03-31T01:21:31.015Z,0.00
2018-03-31T01:22:31.180Z,0.00
2018-03-31T01:23:31.340Z,0.00
2018-03-31T01:24:31.518Z,0.00
2018-03-31T01:25:31.681Z,0.00
2018-03-31T01:26:31.865Z,0.00
2018-03-31T01:27:32.024Z,0.00
2018-03-31T01:28:32.173Z,0.00
2018-03-31T01:29:32.363Z,0.00
2018-03-31T01:30:32.604Z,0.00
2018-03-31T01:31:32.764Z,0.00
2018-03-31T01:32:32.863Z,0.00
2018-03-31T01:33:33.020Z,0.00
2018-03-31T01:34:33.196Z,0.00
2018-03-31T01:35:33.382Z,0.00
2018-03-31T01:36:33.548Z,0.00
2018-03-31T01:37:33.704Z,0.00
2018-03-31T01:38:33.892Z,0.00
2018-03-31T01:39:34.047Z,0.00
2018-03-31T01:40:34.246Z,0.00
2018-03-31T01:41:34.391Z,0.00
2018-03-31T01:42:34.552Z,0.00
2018-03-31T01:43:34.721Z,0.00
2018-03-31T01:44:34.895Z,0.00
2018-03-31T01:45:35.045Z,0.00
2018-03-31T01:46:35.213Z,0.00
2018-03-31T01:47:35.426Z,0.00
2018-03-31T01:48:35.581Z,0.00
2018-03-31T01:49:35.752Z,0.00
2018-03-31T01:50:36.184Z,0.00
2018-03-31T01:51:36.077Z,0.00
2018-03-31T01:52:36.246Z,0.00
2018-03-31T01:53:36.431Z,0.00
2018-03-31T01:54:36.595Z,0.00
2018-03-31T01:55:36.741Z,0.00
2018-03-31T01:56:36.911Z,0.00
2018-03-31T01:57:37.076Z,0.00
2018-03-31T01:58:37.229Z,0.00
2018-03-31T01:59:37.414Z,0.00
2018-03-31T02:00:37.565Z,0.00
2018-03-31T02:01:37.715Z,0.00
2018-03-31T02:02:37.884Z,0.00
2018-03-31T02:03:38.063Z,0.00
2018-03-31T02:04:38.220Z,0.00
2018-03-31T02:05:38.435Z,0.00
2018-03-31T02:06:38.569Z,0.00
2018-03-31T02:07:38.748Z,0.00
2018-03-31T02:08:38.891Z,0.00
2018-03-31T02:09:39.060Z,0.00
2018-03-31T02:10:39.265Z,0.00
2018-03-31T02:11:39.398Z,0.00
2018-03-31T02:12:39.562Z,0.00
2018-03-31T02:13:39.711Z,0.00
2018-03-31T02:14:39.881Z,0.00
2018-03-31T02:15:40.058Z,0.00
2018-03-31T02:16:40.208Z,0.00
2018-03-31T02:17:40.376Z,0.00
2018-03-31T02:18:40.553Z,0.00
2018-03-31T02:19:40.718Z,0.00
2018-03-31T02:20:40.883Z,0.00
2018-03-31T02:21:41.062Z,0.00
2018-03-31T02:22:41.242Z,0.00
2018-03-31T02:23:41.389Z,0.00
2018-03-31T02:24:41.553Z,0.00
2018-03-31T02:25:41.717Z,0.00
2018-03-31T02:26:41.895Z,0.00
2018-03-31T02:27:42.074Z,0.00
2018-03-31T02:28:42.222Z,0.00
2018-03-31T02:29:42.392Z,0.00
2018-03-31T02:30:42.575Z,0.00
2018-03-31T02:31:42.746Z,0.00
2018-03-31T02:32:42.907Z,0.00
2018-03-31T02:33:43.079Z,0.00
2018-03-31T02:34:43.258Z,0.00
2018-03-31T02:35:43.406Z,0.00
2018-03-31T02:36:43.593Z,0.00
2018-03-31T02:37:43.773Z,0.00
2018-03-31T02:38:43.936Z,0.00
2018-03-31T02:39:44.070Z,0.00
2018-03-31T02:40:44.238Z,0.00
2018-03-31T02:41:44.413Z,0.00
2018-03-31T02:42:44.577Z,0.00
2018-03-31T02:43:44.746Z,0.00
2018-03-31T02:44:44.929Z,0.00
2018-03-31T02:45:45.100Z,0.00
2018-03-31T02:46:45.235Z,0.00
2018-03-31T02:47:45.424Z,0.00
2018-03-31T02:48:45.585Z,0.00
2018-03-31T02:49:45.773Z,0.00
2018-03-31T02:50:45.927Z,0.00
2018-03-31T02:51:46.111Z,0.00
2018-03-31T02:52:46.276Z,0.00
2018-03-31T02:53:46.425Z,0.00
2018-03-31T02:54:46.583Z,0.00
2018-03-31T02:55:46.766Z,0.00
2018-03-31T02:56:47.002Z,0.00
2018-03-31T02:57:47.091Z,0.00
2018-03-31T02:58:47.257Z,0.00
2018-03-31T02:59:47.411Z,0.00
2018-03-31T03:00:47.580Z,0.00
2018-03-31T03:01:47.770Z,0.00
2018-03-31T03:02:47.932Z,0.00
2018-03-31T03:03:48.130Z,0.00
2018-03-31T03:04:48.263Z,0.00
2018-03-31T03:05:48.437Z,0.00
2018-03-31T03:06:48.600Z,0.00
2018-03-31T03:07:48.788Z,0.00
2018-03-31T03:08:48.928Z,0.00
2018-03-31T03:09:49.120Z,0.00
2018-03-31T03:10:49.288Z,0.00
2018-03-31T03:11:49.452Z,0.00
2018-03-31T03:12:49.616Z,0.00
2018-03-31T03:13:49.790Z,0.00
2018-03-31T03:14:49.935Z,0.00
2018-03-31T03:15:50.098Z,0.00
2018-03-31T03:16:50.272Z,0.00
2018-03-31T03:17:50.771Z,0.00
2018-03-31T03:18:50.637Z,0.00
2018-03-31T03:19:50.785Z,0.00
2018-03-31T03:20:50.953Z,0.00
2018-03-31T03:21:51.105Z,0.00
2018-03-31T03:22:51.293Z,0.00
2018-03-31T03:23:51.428Z,0.00
2018-03-31T03:24:51.597Z,0.00
2018-03-31T03:25:51.763Z,0.00
2018-03-31T03:26:51.965Z,0.00
2018-03-31T03:27:52.358Z,0.00
2018-03-31T03:28:52.258Z,0.00
2018-03-31T03:29:52.431Z,0.00
2018-03-31T03:30:52.598Z,0.00
2018-03-31T03:31:52.819Z,0.00
2018-03-31T03:32:52.917Z,0.00
2018-03-31T03:33:53.081Z,0.00
2018-03-31T03:34:53.250Z,0.00
2018-03-31T03:35:53.432Z,0.00
2018-03-31T03:36:53.652Z,0.00
2018-03-31T03:37:53.791Z,0.00
2018-03-31T03:38:53.969Z,0.00
2018-03-31T03:39:54.088Z,0.00
2018-03-31T03:40:54.257Z,0.00
2018-03-31T03:41:54.417Z,0.00
2018-03-31T03:42:54.598Z,0.00
2018-03-31T03:43:54.771Z,0.00
2018-03-31T03:44:54.937Z,0.00
2018-03-31T03:45:55.112Z,0.00
2018-03-31T03:46:55.317Z,0.00
2018-03-31T03:47:55.434Z,0.00
2018-03-31T03:48:55.623Z,0.00
2018-03-31T03:49:55.777Z,0.00
2018-03-31T03:50:55.921Z,0.00
2018-03-31T03:51:56.101Z,0.00
2018-03-31T03:52:56.264Z,0.00
2018-03-31T03:53:56.434Z,0.00
2018-03-31T03:54:56.635Z,0.00
2018-03-31T03:55:56.779Z,0.00
2018-03-31T03:56:56.929Z,0.00
2018-03-31T03:57:57.097Z,0.00
2018-03-31T03:58:57.251Z,0.00
2018-03-31T03:59:57.462Z,0.00
2018-03-31T04:00:57.614Z,0.00
2018-03-31T04:01:57.782Z,0.00
2018-03-31T04:02:57.932Z,0.00
2018-03-31T04:03:58.104Z,0.00
2018-03-31T04:04:58.263Z,0.00
2018-03-31T04:05:58.463Z,0.00
2018-03-31T04:06:58.591Z,0.00
2018-03-31T04:07:58.771Z,0.00
2018-03-31T04:08:58.955Z,0.00
2018-03-31T04:09:59.109Z,0.00
2018-03-31T04:10:59.281Z,0.00
2018-03-31T04:11:59.465Z,0.00
2018-03-31T04:12:59.640Z,0.00
2018-03-31T04:13:59.792Z,0.00
2018-03-31T04:14:59.977Z,0.00
2018-03-31T04:16:00.141Z,0.00
2018-03-31T04:17:00.310Z,0.00
2018-03-31T04:18:00.478Z,0.00
2018-03-31T04:19:00.657Z,0.00
2018-03-31T04:20:00.820Z,0.00
2018-03-31T04:21:00.969Z,0.00
2018-03-31T04:22:01.134Z,0.00
2018-03-31T04:23:01.314Z,0.00
2018-03-31T04:24:01.493Z,0.00
2018-03-31T04:25:01.631Z,0.00
2018-03-31T04:26:01.789Z,0.00
2018-03-31T04:27:01.983Z,0.00
2018-03-31T04:28:02.146Z,0.00
2018-03-31T04:29:02.286Z,0.00
2018-03-31T04:30:02.471Z,0.00
2018-03-31T04:31:02.660Z,0.00
2018-03-31T04:32:02.788Z,0.00
2018-03-31T04:33:02.968Z,0.00
2018-03-31T04:34:03.125Z,0.00
2018-03-31T04:35:03.317Z,0.00
2018-03-31T04:36:03.490Z,0.00
2018-03-31T04:37:03.661Z,0.00
2018-03-31T04:38:03.840Z,0.00
2018-03-31T04:39:04.035Z,0.00
2018-03-31T04:40:04.182Z,0.00
2018-03-31T04:41:04.359Z,4.00
2018-03-31T04:42:04.534Z,4.00
2018-03-31T04:43:04.696Z,4.00
2018-03-31T04:44:04.942Z,0.00
2018-03-31T04:45:05.094Z,4.00
2018-03-31T04:46:05.307Z,4.00
2018-03-31T04:47:05.450Z,4.00
2018-03-31T04:48:05.592Z,8.00
2018-03-31T04:49:05.756Z,8.00
2018-03-31T04:50:05.919Z,8.00
2018-03-31T04:51:06.077Z,8.00
2018-03-31T04:52:06.234Z,8.00
2018-03-31T04:53:06.414Z,12.00
2018-03-31T04:54:06.581Z,12.00
2018-03-31T04:55:06.771Z,16.00
2018-03-31T04:56:06.929Z,16.00
2018-03-31T04:57:07.126Z,20.00
2018-03-31T04:58:07.305Z,20.00
2018-03-31T04:59:07.445Z,24.00
2018-03-31T05:00:07.637Z,28.00
2018-03-31T05:01:07.792Z,32.00
2018-03-31T05:02:07.991Z,32.00
2018-03-31T05:03:08.190Z,40.00
2018-03-31T05:04:08.343Z,44.00
2018-03-31T05:05:08.499Z,48.00
2018-03-31T05:06:08.650Z,52.00
2018-03-31T05:07:08.838Z,56.00
2018-03-31T05:08:08.994Z,56.00
2018-03-31T05:09:09.156Z,64.00
2018-03-31T05:10:09.346Z,68.00
2018-03-31T05:11:09.499Z,72.00
2018-03-31T05:12:09.710Z,80.00
2018-03-31T05:13:09.830Z,84.00
2018-03-31T05:14:10.028Z,92.00
2018-03-31T05:15:10.165Z,100.00
2018-03-31T05:16:10.345Z,108.00
2018-03-31T05:17:10.513Z,120.00
2018-03-31T05:18:10.697Z,128.00
2018-03-31T05:19:10.841Z,136.00
2018-03-31T05:20:11.034Z,148.00
2018-03-31T05:21:11.201Z,160.00
2018-03-31T05:22:11.405Z,172.00
2018-03-31T05:23:11.552Z,184.00
2018-03-31T05:24:11.730Z,196.00
2018-03-31T05:25:11.926Z,208.00
2018-03-31T05:26:12.066Z,220.00
2018-03-31T05:27:12.234Z,232.00
2018-03-31T05:28:12.422Z,236.00
2018-03-31T05:29:12.575Z,248.00
2018-03-31T05:30:12.743Z,256.00
2018-03-31T05:31:12.901Z,260.00
2018-03-31T05:32:13.082Z,264.00
2018-03-31T05:33:13.237Z,268.00
2018-03-31T05:34:13.407Z,276.00
2018-03-31T05:35:13.561Z,280.00
2018-03-31T05:36:13.736Z,280.00
2018-03-31T05:37:13.914Z,276.00
2018-03-31T05:38:14.081Z,272.00
2018-03-31T05:39:14.262Z,268.00
2018-03-31T05:40:14.474Z,264.00
2018-03-31T05:41:14.578Z,264.00
2018-03-31T05:42:14.772Z,264.00
2018-03-31T05:43:14.907Z,264.00
2018-03-31T05:44:15.076Z,268.00
2018-03-31T05:45:15.239Z,268.00
2018-03-31T05:46:15.409Z,268.00
2018-03-31T05:47:15.577Z,264.00
2018-03-31T05:48:15.772Z,260.00
2018-03-31T05:49:15.915Z,252.00
2018-03-31T05:50:16.108Z,248.00
2018-03-31T05:51:16.265Z,240.00
2018-03-31T05:52:16.500Z,232.00
2018-03-31T05:53:16.650Z,228.00
2018-03-31T05:54:16.759Z,220.00
2018-03-31T05:55:16.930Z,208.00
2018-03-31T05:56:17.076Z,200.00
2018-03-31T05:57:17.313Z,200.00
2018-03-31T05:58:17.433Z,204.00
2018-03-31T05:59:17.596Z,216.00
2018-03-31T06:00:17.790Z,236.00
2018-03-31T06:01:17.974Z,256.00
2018-03-31T06:02:18.150Z,276.00
2018-03-31T06:03:18.328Z,292.00
2018-03-31T06:04:18.511Z,312.00
2018-03-31T06:05:18.638Z,336.00
2018-03-31T06:06:18.799Z,364.00
2018-03-31T06:07:18.965Z,388.00
2018-03-31T06:08:19.158Z,412.00
2018-03-31T06:09:19.323Z,436.00
2018-03-31T06:10:19.495Z,468.00
2018-03-31T06:11:19.649Z,496.00
2018-03-31T06:12:19.850Z,528.00
2018-03-31T06:13:19.990Z,544.00
2018-03-31T06:14:20.182Z,556.00
2018-03-31T06:15:20.328Z,572.00
2018-03-31T06:16:20.522Z,584.00
2018-03-31T06:17:20.655Z,604.00
2018-03-31T06:18:20.881Z,612.00
2018-03-31T06:19:20.989Z,608.00
2018-03-31T06:20:21.148Z,600.00
2018-03-31T06:21:21.299Z,604.00
2018-03-31T06:22:21.521Z,620.00
2018-03-31T06:23:21.638Z,636.00
2018-03-31T06:24:21.788Z,652.00
2018-03-31T06:25:21.974Z,668.00
2018-03-31T06:26:22.143Z,680.00
2018-03-31T06:27:22.557Z,692.00
2018-03-31T06:28:22.469Z,704.00
2018-03-31T06:29:22.640Z,700.00
2018-03-31T06:30:22.837Z,676.00
2018-03-31T06:31:22.961Z,644.00
2018-03-31T06:32:23.126Z,612.00
2018-03-31T06:33:23.299Z,600.00
2018-03-31T06:34:23.483Z,596.00
2018-03-31T06:35:23.645Z,600.00
2018-03-31T06:36:23.799Z,596.00
2018-03-31T06:37:24.285Z,596.00
2018-03-31T06:38:24.137Z,600.00
2018-03-31T06:39:24.319Z,600.00
2018-03-31T06:40:24.738Z,608.00
2018-03-31T06:41:24.654Z,612.00
2018-03-31T06:42:24.841Z,624.00
2018-03-31T06:43:25.036Z,632.00
2018-03-31T06:44:25.333Z,636.00
2018-03-31T06:45:25.381Z,632.00
2018-03-31T06:46:25.519Z,632.00
2018-03-31T06:47:25.680Z,632.00
2018-03-31T06:48:25.849Z,628.00
2018-03-31T06:49:26.016Z,636.00
2018-03-31T06:50:26.207Z,652.00
2018-03-31T06:51:26.451Z,668.00
2018-03-31T06:52:26.563Z,676.00
2018-03-31T06:53:26.731Z,676.00
2018-03-31T06:54:26.929Z,680.00
2018-03-31T06:55:27.133Z,696.00
2018-03-31T06:56:27.314Z,692.00
2018-03-31T06:57:27.474Z,684.00
2018-03-31T06:58:27.637Z,676.00
2018-03-31T06:59:27.832Z,660.00
2018-03-31T07:00:28.013Z,672.00
2018-03-31T07:01:28.209Z,704.00
2018-03-31T07:02:28.343Z,740.00
2018-03-31T07:03:28.527Z,772.00
2018-03-31T07:04:28.690Z,800.00
2018-03-31T07:05:28.835Z,836.00
2018-03-31T07:06:29.000Z,872.00
2018-03-31T07:07:29.182Z,884.00
2018-03-31T07:08:29.335Z,900.00
2018-03-31T07:09:29.494Z,924.00
2018-03-31T07:10:29.659Z,940.00
2018-03-31T07:11:29.841Z,948.00
2018-03-31T07:12:29.988Z,948.00
2018-03-31T07:14:30.341Z,960.00
2018-03-31T07:15:30.551Z,972.00
2018-03-31T07:16:30.664Z,980.00
2018-03-31T07:17:30.842Z,996.00
2018-03-31T07:18:30.989Z,992.00
2018-03-31T07:19:31.183Z,976.00
2018-03-31T07:20:31.337Z,964.00
2018-03-31T07:21:31.516Z,956.00
2018-03-31T07:22:31.664Z,952.00
2018-03-31T07:23:31.850Z,952.00
2018-03-31T07:24:31.992Z,960.00
2018-03-31T07:25:32.204Z,960.00
2018-03-31T07:27:32.559Z,976.00
2018-03-31T07:28:32.703Z,996.00
2018-03-31T07:29:32.908Z,1024.00
2018-03-31T07:30:33.066Z,1072.00
2018-03-31T07:31:33.233Z,1120.00
2018-03-31T07:32:33.422Z,1140.00
2018-03-31T07:33:33.574Z,1140.00
2018-03-31T07:34:33.765Z,1120.00
2018-03-31T07:35:33.929Z,1116.00
2018-03-31T07:36:34.084Z,1120.00
2018-03-31T07:37:34.253Z,1140.00
2018-03-31T07:38:34.431Z,1196.00
2018-03-31T07:39:34.579Z,1260.00
2018-03-31T07:40:34.743Z,1316.00
2018-03-31T07:41:34.923Z,1376.00
2018-03-31T07:42:35.086Z,1428.00
2018-03-31T07:43:35.273Z,1468.00
2018-03-31T07:44:35.438Z,1496.00
2018-03-31T07:45:35.609Z,1500.00
2018-03-31T07:46:35.775Z,1500.00
2018-03-31T07:47:35.937Z,1528.00
2018-03-31T07:48:36.106Z,1552.00
2018-03-31T07:49:36.296Z,1536.00
2018-03-31T07:50:36.441Z,1472.00
2018-03-31T07:51:36.643Z,1436.00
2018-03-31T07:52:36.792Z,1452.00
2018-03-31T07:53:37.898Z,1492.00
2018-03-31T07:54:37.139Z,1468.00
2018-03-31T07:55:37.300Z,1420.00
2018-03-31T07:56:37.496Z,1404.00
2018-03-31T07:57:37.625Z,1340.00
2018-03-31T07:58:37.794Z,1316.00
2018-03-31T07:59:37.970Z,1256.00
2018-03-31T08:00:38.146Z,1236.00
2018-03-31T08:01:38.337Z,1220.00
2018-03-31T08:02:38.573Z,1168.00
2018-03-31T08:03:38.707Z,1120.00
2018-03-31T08:04:38.873Z,1116.00
2018-03-31T08:05:39.032Z,1072.00
2018-03-31T08:06:39.197Z,1024.00
2018-03-31T08:07:39.378Z,1028.00
2018-03-31T08:08:39.531Z,1064.00
2018-03-31T08:09:39.716Z,1060.00
2018-03-31T08:10:39.866Z,1064.00
2018-03-31T08:11:40.010Z,1008.00
2018-03-31T08:12:40.191Z,1024.00
2018-03-31T08:13:40.358Z,1096.00
2018-03-31T08:14:40.530Z,1108.00
2018-03-31T08:15:40.694Z,1128.00
2018-03-31T08:16:40.920Z,1140.00
2018-03-31T08:17:41.082Z,1204.00
2018-03-31T08:18:41.241Z,1196.00
2018-03-31T08:19:41.368Z,1196.00
2018-03-31T08:20:41.550Z,1172.00
2018-03-31T08:21:41.713Z,1204.00
2018-03-31T08:22:41.886Z,1200.00
2018-03-31T08:23:42.054Z,1256.00
2018-03-31T08:24:42.196Z,1272.00
2018-03-31T08:25:42.381Z,1224.00
2018-03-31T08:26:42.523Z,1220.00
2018-03-31T08:27:42.676Z,1184.00
2018-03-31T08:28:42.853Z,1156.00
2018-03-31T08:29:43.000Z,1124.00
2018-03-31T08:30:43.231Z,1168.00
2018-03-31T08:31:43.356Z,1168.00
2018-03-31T08:32:43.518Z,1144.00
2018-03-31T08:33:43.671Z,1148.00
2018-03-31T08:34:43.841Z,1112.00
2018-03-31T08:35:44.013Z,1144.00
2018-03-31T08:36:44.181Z,1068.00
2018-03-31T08:37:44.352Z,1088.00
2018-03-31T08:38:44.534Z,1044.00
2018-03-31T08:39:44.676Z,1016.00
2018-03-31T08:40:44.849Z,1084.00
2018-03-31T08:41:45.012Z,1136.00
2018-03-31T08:42:45.204Z,1152.00
2018-03-31T08:43:45.380Z,1132.00
2018-03-31T08:44:45.517Z,1172.00
2018-03-31T08:45:45.696Z,1172.00
2018-03-31T08:46:45.884Z,1132.00
2018-03-31T08:47:46.055Z,1128.00
2018-03-31T08:48:46.243Z,1108.00
2018-03-31T08:49:46.396Z,1076.00
2018-03-31T08:50:46.568Z,1020.00
2018-03-31T08:51:46.728Z,936.00
2018-03-31T08:52:46.898Z,912.00
2018-03-31T08:53:47.075Z,852.00
2018-03-31T08:54:47.237Z,772.00
2018-03-31T08:55:47.387Z,748.00
2018-03-31T08:56:47.557Z,756.00
2018-03-31T08:57:47.727Z,764.00
2018-03-31T08:58:47.890Z,768.00
2018-03-31T08:59:48.081Z,736.00
2018-03-31T09:00:48.218Z,768.00
2018-03-31T09:01:48.411Z,748.00
2018-03-31T09:02:48.567Z,748.00
2018-03-31T09:03:48.727Z,748.00
2018-03-31T09:04:49.144Z,744.00
2018-03-31T09:05:49.133Z,732.00
2018-03-31T09:06:49.328Z,704.00
2018-03-31T09:07:49.472Z,676.00
2018-03-31T09:08:49.640Z,668.00
2018-03-31T09:09:49.809Z,652.00
2018-03-31T09:10:49.990Z,624.00
2018-03-31T09:11:50.168Z,656.00
2018-03-31T09:12:50.319Z,652.00
2018-03-31T09:13:50.493Z,600.00
2018-03-31T09:14:50.710Z,600.00
2018-03-31T09:15:50.899Z,596.00
2018-03-31T09:16:51.038Z,560.00
2018-03-31T09:17:51.220Z,548.00
2018-03-31T09:18:51.398Z,556.00
2018-03-31T09:19:51.560Z,556.00
2018-03-31T09:20:51.784Z,556.00
2018-03-31T09:21:51.983Z,556.00
2018-03-31T09:22:52.126Z,552.00
2018-03-31T09:23:52.296Z,556.00
2018-03-31T09:24:52.702Z,564.00
2018-03-31T09:25:52.620Z,588.00
2018-03-31T09:26:52.862Z,620.00
2018-03-31T09:27:52.928Z,652.00
2018-03-31T09:28:53.155Z,664.00
2018-03-31T09:29:54.488Z,700.00
2018-03-31T09:30:53.497Z,716.00
2018-03-31T09:31:53.660Z,732.00
2018-03-31T09:32:53.898Z,744.00
2018-03-31T09:33:54.021Z,716.00
2018-03-31T09:34:54.353Z,728.00
2018-03-31T09:35:54.407Z,764.00
2018-03-31T09:36:54.646Z,792.00
2018-03-31T09:37:54.746Z,812.00
2018-03-31T09:38:54.912Z,844.00
2018-03-31T09:39:55.101Z,840.00
2018-03-31T09:40:55.249Z,888.00
2018-03-31T09:41:55.434Z,892.00
2018-03-31T09:42:55.608Z,868.00
2018-03-31T09:43:55.751Z,900.00
2018-03-31T09:44:55.917Z,960.00
2018-03-31T09:45:56.115Z,964.00
2018-03-31T09:46:56.285Z,948.00
2018-03-31T09:47:56.462Z,944.00
2018-03-31T09:48:56.594Z,1008.00
2018-03-31T09:49:57.074Z,1084.00
2018-03-31T09:50:57.697Z,1076.00
2018-03-31T09:51:57.291Z,1072.00
2018-03-31T09:52:57.375Z,1088.00
2018-03-31T09:53:57.543Z,1048.00
2018-03-31T09:54:57.731Z,1112.00
2018-03-31T09:55:57.919Z,1160.00
2018-03-31T09:56:58.064Z,1184.00
2018-03-31T09:57:58.257Z,1184.00
2018-03-31T09:58:58.428Z,1208.00
2018-03-31T09:59:58.593Z,1212.00
2018-03-31T10:00:58.765Z,1180.00
2018-03-31T10:01:58.925Z,1164.00
2018-03-31T10:02:59.092Z,1160.00
2018-03-31T10:03:59.314Z,1192.00
2018-03-31T10:04:59.433Z,1200.00
2018-03-31T10:05:59.636Z,1224.00
2018-03-31T10:06:59.753Z,1308.00
2018-03-31T10:07:59.954Z,1360.00
2018-03-31T10:09:00.092Z,1336.00
2018-03-31T10:10:00.265Z,1408.00
2018-03-31T10:11:00.410Z,1512.00
2018-03-31T10:12:00.584Z,1476.00
2018-03-31T10:13:00.747Z,1456.00
2018-03-31T10:14:00.908Z,1516.00
2018-03-31T10:15:01.110Z,1544.00
2018-03-31T10:16:01.246Z,1572.00
2018-03-31T10:17:01.425Z,1616.00
2018-03-31T10:18:01.640Z,1696.00
2018-03-31T10:19:01.775Z,1800.00
2018-03-31T10:20:01.943Z,1788.00
2018-03-31T10:21:02.130Z,1740.00
2018-03-31T10:22:02.335Z,1764.00
2018-03-31T10:23:04.470Z,1784.00
2018-03-31T10:24:02.603Z,1864.00
2018-03-31T10:25:02.760Z,1860.00
2018-03-31T10:26:02.970Z,1956.00
2018-03-31T10:27:03.121Z,2132.00
2018-03-31T10:28:03.273Z,2184.00
2018-03-31T10:29:03.446Z,2260.00
2018-03-31T10:30:03.631Z,2252.00
2018-03-31T10:31:03.808Z,2332.00
2018-03-31T10:32:03.955Z,2204.00
2018-03-31T10:33:04.146Z,2152.00
2018-03-31T10:34:04.653Z,2136.00
2018-03-31T10:35:04.455Z,2048.00
2018-03-31T10:36:04.623Z,1916.00
2018-03-31T10:37:04.797Z,1996.00
2018-03-31T10:38:05.014Z,2004.00
2018-03-31T10:39:05.143Z,1932.00
2018-03-31T10:40:05.320Z,2068.00
2018-03-31T10:41:05.500Z,2112.00
2018-03-31T10:42:05.618Z,2060.00
2018-03-31T10:43:05.790Z,1980.00
2018-03-31T10:44:06.289Z,1892.00
2018-03-31T10:45:06.183Z,1972.00
2018-03-31T10:46:06.342Z,1992.00
2018-03-31T10:47:06.486Z,2096.00
2018-03-31T10:48:06.671Z,2096.00
2018-03-31T10:49:06.867Z,2144.00
2018-03-31T10:50:07.114Z,2148.00
2018-03-31T10:51:07.268Z,2164.00
2018-03-31T10:52:08.093Z,2144.00
2018-03-31T10:53:07.660Z,2308.00
2018-03-31T10:54:07.845Z,2372.00
2018-03-31T10:55:07.997Z,2392.00
2018-03-31T10:56:08.131Z,2404.00
2018-03-31T10:57:08.329Z,2532.00
2018-03-31T10:58:08.793Z,2664.00
2018-03-31T10:59:08.749Z,2576.00
2018-03-31T11:00:08.956Z,2716.00
2018-03-31T11:01:09.135Z,2944.00
2018-03-31T11:02:09.275Z,3156.00
2018-03-31T11:03:09.453Z,3160.00
2018-03-31T11:04:09.622Z,3256.00
2018-03-31T11:05:09.773Z,3724.00
2018-03-31T11:06:09.954Z,4144.00
2018-03-31T11:07:10.169Z,4440.00
2018-03-31T11:08:10.324Z,4624.00
2018-03-31T11:09:10.450Z,4612.00
2018-03-31T11:10:10.635Z,4540.00
2018-03-31T11:11:11.081Z,4784.00
2018-03-31T11:12:11.000Z,5040.00
2018-03-31T11:13:11.160Z,4832.00
2018-03-31T11:14:11.344Z,4560.00
2018-03-31T11:15:11.534Z,4668.00
2018-03-31T11:16:11.667Z,5076.00
2018-03-31T11:17:11.833Z,5080.00
2018-03-31T11:18:12.015Z,5064.00
2018-03-31T11:19:12.210Z,5152.00
2018-03-31T11:20:12.341Z,4988.00
2018-03-31T11:21:12.530Z,4976.00
2018-03-31T11:22:12.682Z,4996.00
2018-03-31T11:23:12.838Z,5244.00
2018-03-31T11:24:13.033Z,5332.00
2018-03-31T11:25:13.211Z,5292.00
2018-03-31T11:26:13.384Z,5156.00
2018-03-31T11:27:13.544Z,4828.00
2018-03-31T11:28:13.735Z,4660.00
2018-03-31T11:29:13.945Z,4568.00
2018-03-31T11:30:14.105Z,4520.00
2018-03-31T11:31:14.302Z,4468.00
2018-03-31T11:32:14.504Z,4436.00
2018-03-31T11:33:14.643Z,4232.00
2018-03-31T11:34:14.848Z,3968.00
2018-03-31T11:35:14.998Z,3972.00
2018-03-31T11:36:15.182Z,4020.00
2018-03-31T11:37:15.429Z,3888.00
2018-03-31T11:38:15.572Z,3660.00
2018-03-31T11:39:15.744Z,3612.00
2018-03-31T11:40:15.903Z,3572.00
2018-03-31T11:41:16.147Z,3604.00
2018-03-31T11:42:16.271Z,3604.00
2018-03-31T11:43:16.451Z,3484.00
2018-03-31T11:44:16.626Z,3484.00
2018-03-31T11:45:16.822Z,3604.00
2018-03-31T11:46:17.000Z,3816.00
2018-03-31T11:47:17.166Z,3848.00
2018-03-31T11:48:17.328Z,3780.00
2018-03-31T11:49:17.494Z,3732.00
2018-03-31T11:50:17.681Z,3780.00
2018-03-31T11:51:18.141Z,3800.00
2018-03-31T11:52:18.046Z,3712.00
2018-03-31T11:53:18.166Z,3708.00
2018-03-31T11:54:18.326Z,3720.00
2018-03-31T11:55:18.500Z,3740.00
2018-03-31T11:56:18.688Z,3856.00
2018-03-31T11:57:18.823Z,4036.00
2018-03-31T11:58:19.021Z,4160.00
2018-03-31T11:59:19.161Z,4244.00
2018-03-31T12:00:19.324Z,4236.00
2018-03-31T12:01:19.493Z,4556.00
2018-03-31T12:02:19.653Z,4920.00
2018-03-31T12:03:19.814Z,5068.00
2018-03-31T12:04:20.012Z,5164.00
2018-03-31T12:05:20.168Z,5132.00
2018-03-31T12:06:20.327Z,5036.00
2018-03-31T12:07:20.521Z,4904.00
2018-03-31T12:08:20.677Z,4628.00
2018-03-31T12:09:20.833Z,4596.00
2018-03-31T12:10:20.998Z,4656.00
2018-03-31T12:11:21.172Z,4624.00
2018-03-31T12:12:21.395Z,4256.00
2018-03-31T12:13:21.499Z,3896.00
2018-03-31T12:14:21.668Z,3860.00
2018-03-31T12:15:21.840Z,3728.00
2018-03-31T12:16:22.027Z,3624.00
2018-03-31T12:17:22.194Z,3496.00
2018-03-31T12:18:22.414Z,3496.00
2018-03-31T12:19:30.194Z,3532.00
2018-03-31T12:20:22.722Z,3392.00
2018-03-31T12:21:22.947Z,3160.00
2018-03-31T12:22:25.051Z,2968.00
2018-03-31T12:23:23.350Z,2656.00
2018-03-31T12:24:23.528Z,2652.00
2018-03-31T12:25:23.697Z,2924.00
2018-03-31T12:26:23.879Z,3120.00
2018-03-31T12:27:24.062Z,3244.00
2018-03-31T12:28:24.223Z,3284.00
2018-03-31T12:29:24.402Z,3464.00
2018-03-31T12:30:24.588Z,3888.00
2018-03-31T12:31:24.776Z,4232.00
2018-03-31T12:32:24.967Z,4440.00
2018-03-31T12:33:25.127Z,4448.00
2018-03-31T12:34:25.307Z,4516.00
2018-03-31T12:35:25.480Z,4560.00
2018-03-31T12:36:25.658Z,4492.00
2018-03-31T12:37:25.841Z,4576.00
2018-03-31T12:38:26.018Z,4600.00
2018-03-31T12:39:26.206Z,4572.00
2018-03-31T12:40:26.377Z,4572.00
2018-03-31T12:41:26.555Z,4536.00
2018-03-31T12:42:26.738Z,4384.00
2018-03-31T12:43:26.924Z,4144.00
2018-03-31T12:44:27.165Z,4116.00
2018-03-31T12:45:27.274Z,4192.00